sensor_id;sensor_type;location;lat;lon;timestamp;P1;durP1;ratioP1;P2;durP2;ratioP2
75191;SDS011;63771;52.580;9.734;2023-01-30T00:00:56;33.15;;;16.30;;
75191;SDS011;63771;52.580;9.734;2023-01-30T00:03:24;28.67;;;16.13;;
75191;SDS011;63771;52.580;9.734;2023-01-30T00:05:49;32.07;;;15.93;;
75191;SDS011;63771;52.580;9.734;2023-01-30T00:08:15;27.42;;;15.02;;
75191;SDS011;63771;52.580;9.734;2023-01-30T00:10:40;31.05;;;15.98;;
75191;SDS011;63771;52.580;9.734;2023-01-30T00:13:06;36.75;;;17.38;;
75191;SDS011;63771;52.580;9.734;2023-01-30T00:15:32;31.50;;;16.15;;
75191;SDS011;63771;52.580;9.734;2023-01-30T00:17:57;28.37;;;16.60;;
75191;SDS011;63771;52.580;9.734;2023-01-30T00:20:22;26.90;;;15.80;;
75191;SDS011;63771;52.580;9.734;2023-01-30T00:22:48;24.40;;;14.17;;
75191;SDS011;63771;52.580;9.734;2023-01-30T00:25:13;29.57;;;15.43;;
75191;SDS011;63771;52.580;9.734;2023-01-30T00:27:38;30.27;;;15.60;;
75191;SDS011;63771;52.580;9.734;2023-01-30T00:30:04;31.30;;;17.30;;
75191;SDS011;63771;52.580;9.734;2023-01-30T00:32:31;26.05;;;13.82;;
75191;SDS011;63771;52.580;9.734;2023-01-30T00:34:56;29.65;;;18.17;;
75191;SDS011;63771;52.580;9.734;2023-01-30T00:37:22;27.63;;;15.02;;
75191;SDS011;63771;52.580;9.734;2023-01-30T00:39:47;29.60;;;15.23;;
75191;SDS011;63771;52.580;9.734;2023-01-30T00:42:12;30.97;;;15.30;;
75191;SDS011;63771;52.580;9.734;2023-01-30T00:44:56;35.20;;;16.05;;
75191;SDS011;63771;52.580;9.734;2023-01-30T00:47:39;27.55;;;15.32;;
75191;SDS011;63771;52.580;9.734;2023-01-30T00:50:05;30.55;;;17.17;;
75191;SDS011;63771;52.580;9.734;2023-01-30T00:52:30;29.25;;;15.50;;
75191;SDS011;63771;52.580;9.734;2023-01-30T00:54:56;26.77;;;15.33;;
75191;SDS011;63771;52.580;9.734;2023-01-30T00:57:21;30.07;;;14.97;;
75191;SDS011;63771;52.580;9.734;2023-01-30T00:59:46;35.20;;;17.35;;
75191;SDS011;63771;52.580;9.734;2023-01-30T01:02:12;32.07;;;16.40;;
75191;SDS011;63771;52.580;9.734;2023-01-30T01:04:37;30.73;;;16.23;;
75191;SDS011;63771;52.580;9.734;2023-01-30T01:07:07;28.75;;;15.15;;
75191;SDS011;63771;52.580;9.734;2023-01-30T01:09:33;30.27;;;17.35;;
75191;SDS011;63771;52.580;9.734;2023-01-30T01:11:59;35.77;;;16.63;;
75191;SDS011;63771;52.580;9.734;2023-01-30T01:14:24;27.27;;;14.67;;
75191;SDS011;63771;52.580;9.734;2023-01-30T01:16:50;29.38;;;16.45;;
75191;SDS011;63771;52.580;9.734;2023-01-30T01:19:15;30.77;;;14.90;;
75191;SDS011;63771;52.580;9.734;2023-01-30T01:21:40;28.07;;;16.63;;
75191;SDS011;63771;52.580;9.734;2023-01-30T01:24:06;28.77;;;15.10;;
75191;SDS011;63771;52.580;9.734;2023-01-30T01:26:36;30.65;;;15.82;;
75191;SDS011;63771;52.580;9.734;2023-01-30T01:29:01;28.60;;;15.57;;
75191;SDS011;63771;52.580;9.734;2023-01-30T01:31:26;26.50;;;14.90;;
75191;SDS011;63771;52.580;9.734;2023-01-30T01:33:51;30.00;;;15.80;;
75191;SDS011;63771;52.580;9.734;2023-01-30T01:36:17;28.73;;;16.30;;
75191;SDS011;63771;52.580;9.734;2023-01-30T01:38:42;31.08;;;17.63;;
75191;SDS011;63771;52.580;9.734;2023-01-30T01:41:09;26.10;;;17.05;;
75191;SDS011;63771;52.580;9.734;2023-01-30T01:43:37;29.73;;;15.95;;
75191;SDS011;63771;52.580;9.734;2023-01-30T01:46:24;26.55;;;15.25;;
75191;SDS011;63771;52.580;9.734;2023-01-30T01:48:57;25.42;;;13.70;;
75191;SDS011;63771;52.580;9.734;2023-01-30T01:54:08;27.30;;;14.93;;
75191;SDS011;63771;52.580;9.734;2023-01-30T01:56:41;25.27;;;15.18;;
75191;SDS011;63771;52.580;9.734;2023-01-30T01:59:15;33.10;;;16.23;;
75191;SDS011;63771;52.580;9.734;2023-01-30T02:01:49;27.55;;;15.95;;
75191;SDS011;63771;52.580;9.734;2023-01-30T02:04:17;29.33;;;15.35;;
75191;SDS011;63771;52.580;9.734;2023-01-30T02:07:07;33.60;;;15.90;;
75191;SDS011;63771;52.580;9.734;2023-01-30T02:09:33;30.30;;;16.73;;
75191;SDS011;63771;52.580;9.734;2023-01-30T02:11:59;30.35;;;16.80;;
75191;SDS011;63771;52.580;9.734;2023-01-30T02:14:27;31.25;;;17.08;;
75191;SDS011;63771;52.580;9.734;2023-01-30T02:16:53;31.98;;;16.08;;
75191;SDS011;63771;52.580;9.734;2023-01-30T02:19:23;29.23;;;17.30;;
75191;SDS011;63771;52.580;9.734;2023-01-30T02:22:21;34.08;;;18.27;;
75191;SDS011;63771;52.580;9.734;2023-01-30T02:30:57;30.05;;;16.00;;
75191;SDS011;63771;52.580;9.734;2023-01-30T02:33:51;31.65;;;15.98;;
75191;SDS011;63771;52.580;9.734;2023-01-30T02:36:36;28.30;;;15.20;;
75191;SDS011;63771;52.580;9.734;2023-01-30T02:42:03;28.90;;;16.52;;
75191;SDS011;63771;52.580;9.734;2023-01-30T02:47:11;33.03;;;17.13;;
75191;SDS011;63771;52.580;9.734;2023-01-30T02:49:53;28.00;;;17.38;;
75191;SDS011;63771;52.580;9.734;2023-01-30T02:52:24;25.23;;;16.00;;
75191;SDS011;63771;52.580;9.734;2023-01-30T02:54:51;27.08;;;15.80;;
75191;SDS011;63771;52.580;9.734;2023-01-30T02:57:18;30.73;;;15.80;;
75191;SDS011;63771;52.580;9.734;2023-01-30T02:59:45;32.42;;;17.23;;
75191;SDS011;63771;52.580;9.734;2023-01-30T03:07:44;24.52;;;13.50;;
75191;SDS011;63771;52.580;9.734;2023-01-30T03:15:22;27.88;;;15.98;;
75191;SDS011;63771;52.580;9.734;2023-01-30T03:17:55;30.02;;;16.55;;
75191;SDS011;63771;52.580;9.734;2023-01-30T03:20:21;29.58;;;16.05;;
75191;SDS011;63771;52.580;9.734;2023-01-30T03:22:46;29.83;;;16.30;;
75191;SDS011;63771;52.580;9.734;2023-01-30T03:25:14;34.13;;;16.00;;
75191;SDS011;63771;52.580;9.734;2023-01-30T03:27:43;27.38;;;15.00;;
75191;SDS011;63771;52.580;9.734;2023-01-30T03:30:09;29.30;;;14.90;;
75191;SDS011;63771;52.580;9.734;2023-01-30T03:32:34;27.48;;;15.05;;
75191;SDS011;63771;52.580;9.734;2023-01-30T03:35:00;24.10;;;14.13;;
75191;SDS011;63771;52.580;9.734;2023-01-30T03:37:25;27.47;;;15.37;;
75191;SDS011;63771;52.580;9.734;2023-01-30T03:39:51;29.27;;;14.43;;
75191;SDS011;63771;52.580;9.734;2023-01-30T03:42:16;26.65;;;14.80;;
75191;SDS011;63771;52.580;9.734;2023-01-30T03:44:42;28.67;;;13.50;;
75191;SDS011;63771;52.580;9.734;2023-01-30T03:47:07;24.03;;;13.33;;
75191;SDS011;63771;52.580;9.734;2023-01-30T03:49:32;27.83;;;13.53;;
75191;SDS011;63771;52.580;9.734;2023-01-30T03:51:58;24.63;;;13.93;;
75191;SDS011;63771;52.580;9.734;2023-01-30T03:54:23;23.33;;;12.93;;
75191;SDS011;63771;52.580;9.734;2023-01-30T03:56:49;25.87;;;14.50;;
75191;SDS011;63771;52.580;9.734;2023-01-30T03:59:14;25.73;;;14.03;;
75191;SDS011;63771;52.580;9.734;2023-01-30T04:01:39;25.20;;;13.80;;
75191;SDS011;63771;52.580;9.734;2023-01-30T04:04:05;22.30;;;13.75;;
75191;SDS011;63771;52.580;9.734;2023-01-30T04:06:30;27.00;;;13.53;;
75191;SDS011;63771;52.580;9.734;2023-01-30T04:08:55;26.27;;;13.67;;
75191;SDS011;63771;52.580;9.734;2023-01-30T04:11:21;27.73;;;12.77;;
75191;SDS011;63771;52.580;9.734;2023-01-30T04:13:46;23.70;;;14.03;;
75191;SDS011;63771;52.580;9.734;2023-01-30T04:18:50;25.38;;;13.43;;
75191;SDS011;63771;52.580;9.734;2023-01-30T04:21:16;27.05;;;14.88;;
75191;SDS011;63771;52.580;9.734;2023-01-30T04:23:42;24.08;;;12.32;;
75191;SDS011;63771;52.580;9.734;2023-01-30T04:26:08;23.17;;;13.23;;
75191;SDS011;63771;52.580;9.734;2023-01-30T04:28:34;23.52;;;12.73;;
75191;SDS011;63771;52.580;9.734;2023-01-30T04:30:59;23.85;;;13.55;;
75191;SDS011;63771;52.580;9.734;2023-01-30T04:33:25;25.27;;;13.50;;
75191;SDS011;63771;52.580;9.734;2023-01-30T04:35:53;21.13;;;11.63;;
75191;SDS011;63771;52.580;9.734;2023-01-30T04:38:20;15.35;;;9.88;;
75191;SDS011;63771;52.580;9.734;2023-01-30T04:40:47;17.08;;;11.00;;
75191;SDS011;63771;52.580;9.734;2023-01-30T04:43:13;20.58;;;10.98;;
75191;SDS011;63771;52.580;9.734;2023-01-30T04:45:41;23.37;;;11.40;;
75191;SDS011;63771;52.580;9.734;2023-01-30T04:48:07;18.98;;;12.20;;
75191;SDS011;63771;52.580;9.734;2023-01-30T04:50:32;17.17;;;10.30;;
75191;SDS011;63771;52.580;9.734;2023-01-30T04:52:58;17.73;;;10.50;;
75191;SDS011;63771;52.580;9.734;2023-01-30T04:55:23;16.23;;;10.75;;
75191;SDS011;63771;52.580;9.734;2023-01-30T04:57:48;19.87;;;11.03;;
75191;SDS011;63771;52.580;9.734;2023-01-30T05:00:14;22.23;;;11.10;;
75191;SDS011;63771;52.580;9.734;2023-01-30T05:02:39;19.13;;;11.43;;
75191;SDS011;63771;52.580;9.734;2023-01-30T05:05:04;18.17;;;10.13;;
75191;SDS011;63771;52.580;9.734;2023-01-30T05:07:30;17.77;;;11.23;;
75191;SDS011;63771;52.580;9.734;2023-01-30T05:09:55;17.17;;;10.17;;
75191;SDS011;63771;52.580;9.734;2023-01-30T05:12:20;19.03;;;10.10;;
75191;SDS011;63771;52.580;9.734;2023-01-30T05:14:46;19.43;;;10.80;;
75191;SDS011;63771;52.580;9.734;2023-01-30T05:17:11;21.17;;;11.63;;
75191;SDS011;63771;52.580;9.734;2023-01-30T05:19:36;16.33;;;10.00;;
75191;SDS011;63771;52.580;9.734;2023-01-30T05:22:02;18.80;;;9.80;;
75191;SDS011;63771;52.580;9.734;2023-01-30T05:24:27;17.88;;;9.88;;
75191;SDS011;63771;52.580;9.734;2023-01-30T05:26:52;19.00;;;9.87;;
75191;SDS011;63771;52.580;9.734;2023-01-30T05:29:18;16.10;;;9.60;;
75191;SDS011;63771;52.580;9.734;2023-01-30T05:31:43;17.27;;;9.07;;
75191;SDS011;63771;52.580;9.734;2023-01-30T05:34:09;14.00;;;8.60;;
75191;SDS011;63771;52.580;9.734;2023-01-30T05:36:36;13.15;;;9.35;;
75191;SDS011;63771;52.580;9.734;2023-01-30T05:39:01;15.80;;;8.20;;
75191;SDS011;63771;52.580;9.734;2023-01-30T05:41:26;17.03;;;8.53;;
75191;SDS011;63771;52.580;9.734;2023-01-30T05:43:52;10.10;;;7.33;;
75191;SDS011;63771;52.580;9.734;2023-01-30T05:46:17;10.15;;;7.03;;
75191;SDS011;63771;52.580;9.734;2023-01-30T05:48:43;12.48;;;7.40;;
75191;SDS011;63771;52.580;9.734;2023-01-30T05:51:14;10.13;;;6.97;;
75191;SDS011;63771;52.580;9.734;2023-01-30T05:53:44;8.48;;;6.03;;
75191;SDS011;63771;52.580;9.734;2023-01-30T05:56:09;9.07;;;5.57;;
75191;SDS011;63771;52.580;9.734;2023-01-30T05:58:35;9.80;;;6.40;;
75191;SDS011;63771;52.580;9.734;2023-01-30T06:01:01;9.73;;;6.03;;
75191;SDS011;63771;52.580;9.734;2023-01-30T06:03:28;10.15;;;6.60;;
75191;SDS011;63771;52.580;9.734;2023-01-30T06:05:53;7.97;;;6.25;;
75191;SDS011;63771;52.580;9.734;2023-01-30T06:08:19;7.87;;;6.40;;
75191;SDS011;63771;52.580;9.734;2023-01-30T06:10:44;10.97;;;6.30;;
75191;SDS011;63771;52.580;9.734;2023-01-30T06:13:09;8.57;;;5.87;;
75191;SDS011;63771;52.580;9.734;2023-01-30T06:15:35;6.90;;;5.70;;
75191;SDS011;63771;52.580;9.734;2023-01-30T06:18:01;8.07;;;6.05;;
75191;SDS011;63771;52.580;9.734;2023-01-30T06:20:26;11.70;;;6.60;;
75191;SDS011;63771;52.580;9.734;2023-01-30T06:22:52;9.37;;;5.30;;
75191;SDS011;63771;52.580;9.734;2023-01-30T06:25:17;6.60;;;4.97;;
75191;SDS011;63771;52.580;9.734;2023-01-30T06:27:44;7.07;;;4.67;;
75191;SDS011;63771;52.580;9.734;2023-01-30T06:30:10;7.72;;;4.53;;
75191;SDS011;63771;52.580;9.734;2023-01-30T06:32:36;9.02;;;4.53;;
75191;SDS011;63771;52.580;9.734;2023-01-30T06:35:01;4.53;;;3.67;;
75191;SDS011;63771;52.580;9.734;2023-01-30T06:37:27;6.32;;;3.80;;
75191;SDS011;63771;52.580;9.734;2023-01-30T06:39:52;8.80;;;3.53;;
75191;SDS011;63771;52.580;9.734;2023-01-30T06:42:17;5.88;;;3.38;;
75191;SDS011;63771;52.580;9.734;2023-01-30T06:44:43;14.50;;;3.58;;
75191;SDS011;63771;52.580;9.734;2023-01-30T06:47:09;8.38;;;3.85;;
75191;SDS011;63771;52.580;9.734;2023-01-30T06:49:34;5.13;;;3.33;;
75191;SDS011;63771;52.580;9.734;2023-01-30T06:51:59;7.18;;;3.28;;
75191;SDS011;63771;52.580;9.734;2023-01-30T06:54:24;15.43;;;3.03;;
75191;SDS011;63771;52.580;9.734;2023-01-30T06:56:50;4.27;;;2.73;;
75191;SDS011;63771;52.580;9.734;2023-01-30T06:59:15;6.87;;;2.67;;
75191;SDS011;63771;52.580;9.734;2023-01-30T07:01:40;11.70;;;2.67;;
75191;SDS011;63771;52.580;9.734;2023-01-30T07:04:06;7.20;;;2.53;;
75191;SDS011;63771;52.580;9.734;2023-01-30T07:06:31;9.50;;;2.93;;
75191;SDS011;63771;52.580;9.734;2023-01-30T07:08:57;6.70;;;2.03;;
75191;SDS011;63771;52.580;9.734;2023-01-30T07:11:23;12.90;;;2.53;;
75191;SDS011;63771;52.580;9.734;2023-01-30T07:13:48;12.40;;;3.08;;
75191;SDS011;63771;52.580;9.734;2023-01-30T07:16:14;12.48;;;2.80;;
75191;SDS011;63771;52.580;9.734;2023-01-30T07:18:39;8.77;;;2.45;;
75191;SDS011;63771;52.580;9.734;2023-01-30T07:21:05;9.97;;;2.27;;
75191;SDS011;63771;52.580;9.734;2023-01-30T07:23:30;11.57;;;2.97;;
75191;SDS011;63771;52.580;9.734;2023-01-30T07:25:55;10.23;;;2.70;;
75191;SDS011;63771;52.580;9.734;2023-01-30T07:28:21;7.22;;;2.30;;
75191;SDS011;63771;52.580;9.734;2023-01-30T07:30:46;11.83;;;2.57;;
75191;SDS011;63771;52.580;9.734;2023-01-30T07:33:11;5.95;;;1.95;;
75191;SDS011;63771;52.580;9.734;2023-01-30T07:35:37;13.33;;;1.87;;
75191;SDS011;63771;52.580;9.734;2023-01-30T07:38:03;12.80;;;2.63;;
75191;SDS011;63771;52.580;9.734;2023-01-30T07:40:29;6.95;;;3.10;;
75191;SDS011;63771;52.580;9.734;2023-01-30T07:42:55;11.17;;;2.83;;
75191;SDS011;63771;52.580;9.734;2023-01-30T07:45:20;11.30;;;2.65;;
75191;SDS011;63771;52.580;9.734;2023-01-30T07:47:46;10.33;;;2.80;;
75191;SDS011;63771;52.580;9.734;2023-01-30T07:50:11;8.07;;;2.50;;
75191;SDS011;63771;52.580;9.734;2023-01-30T07:52:37;5.63;;;2.10;;
75191;SDS011;63771;52.580;9.734;2023-01-30T07:55:03;5.50;;;2.75;;
75191;SDS011;63771;52.580;9.734;2023-01-30T07:57:28;13.98;;;2.33;;
75191;SDS011;63771;52.580;9.734;2023-01-30T07:59:54;14.27;;;3.20;;
75191;SDS011;63771;52.580;9.734;2023-01-30T08:02:19;9.03;;;2.03;;
75191;SDS011;63771;52.580;9.734;2023-01-30T08:04:44;11.40;;;2.20;;
75191;SDS011;63771;52.580;9.734;2023-01-30T08:07:10;9.83;;;2.10;;
75191;SDS011;63771;52.580;9.734;2023-01-30T08:09:35;11.17;;;2.87;;
75191;SDS011;63771;52.580;9.734;2023-01-30T08:12:00;15.67;;;3.20;;
75191;SDS011;63771;52.580;9.734;2023-01-30T08:14:26;6.00;;;1.93;;
75191;SDS011;63771;52.580;9.734;2023-01-30T08:16:54;9.50;;;2.47;;
75191;SDS011;63771;52.580;9.734;2023-01-30T08:19:21;14.90;;;2.63;;
75191;SDS011;63771;52.580;9.734;2023-01-30T08:21:46;10.80;;;2.67;;
75191;SDS011;63771;52.580;9.734;2023-01-30T08:24:11;7.73;;;2.10;;
75191;SDS011;63771;52.580;9.734;2023-01-30T08:26:37;6.95;;;1.98;;
75191;SDS011;63771;52.580;9.734;2023-01-30T08:29:02;11.57;;;2.40;;
75191;SDS011;63771;52.580;9.734;2023-01-30T08:31:27;16.02;;;3.13;;
75191;SDS011;63771;52.580;9.734;2023-01-30T08:33:53;5.83;;;2.03;;
75191;SDS011;63771;52.580;9.734;2023-01-30T08:36:18;6.83;;;2.30;;
75191;SDS011;63771;52.580;9.734;2023-01-30T08:38:43;16.08;;;2.67;;
75191;SDS011;63771;52.580;9.734;2023-01-30T08:41:09;6.77;;;1.70;;
75191;SDS011;63771;52.580;9.734;2023-01-30T08:43:34;11.20;;;2.30;;
75191;SDS011;63771;52.580;9.734;2023-01-30T08:46:00;10.77;;;3.33;;
75191;SDS011;63771;52.580;9.734;2023-01-30T08:48:25;8.35;;;2.30;;
75191;SDS011;63771;52.580;9.734;2023-01-30T08:50:54;13.50;;;2.42;;
75191;SDS011;63771;52.580;9.734;2023-01-30T08:53:20;10.52;;;2.17;;
75191;SDS011;63771;52.580;9.734;2023-01-30T08:55:50;14.55;;;3.10;;
75191;SDS011;63771;52.580;9.734;2023-01-30T08:58:18;11.20;;;2.55;;
75191;SDS011;63771;52.580;9.734;2023-01-30T09:00:44;16.88;;;2.95;;
75191;SDS011;63771;52.580;9.734;2023-01-30T09:03:11;9.50;;;2.47;;
75191;SDS011;63771;52.580;9.734;2023-01-30T09:05:37;14.10;;;2.65;;
75191;SDS011;63771;52.580;9.734;2023-01-30T09:08:02;10.30;;;2.33;;
75191;SDS011;63771;52.580;9.734;2023-01-30T09:10:28;10.25;;;3.22;;
75191;SDS011;63771;52.580;9.734;2023-01-30T09:12:54;10.10;;;2.15;;
75191;SDS011;63771;52.580;9.734;2023-01-30T09:15:19;12.70;;;2.33;;
75191;SDS011;63771;52.580;9.734;2023-01-30T09:17:45;7.93;;;2.38;;
75191;SDS011;63771;52.580;9.734;2023-01-30T09:20:10;8.90;;;2.55;;
75191;SDS011;63771;52.580;9.734;2023-01-30T09:22:36;9.77;;;1.85;;
75191;SDS011;63771;52.580;9.734;2023-01-30T09:25:02;12.25;;;2.70;;
75191;SDS011;63771;52.580;9.734;2023-01-30T09:27:28;6.97;;;2.70;;
75191;SDS011;63771;52.580;9.734;2023-01-30T09:29:54;18.10;;;2.93;;
75191;SDS011;63771;52.580;9.734;2023-01-30T09:32:19;6.70;;;2.00;;
75191;SDS011;63771;52.580;9.734;2023-01-30T09:34:44;10.07;;;2.80;;
75191;SDS011;63771;52.580;9.734;2023-01-30T09:37:10;7.30;;;2.47;;
75191;SDS011;63771;52.580;9.734;2023-01-30T09:39:35;6.80;;;2.10;;
75191;SDS011;63771;52.580;9.734;2023-01-30T09:52:54;15.57;;;2.70;;
75191;SDS011;63771;52.580;9.734;2023-01-30T09:55:28;7.00;;;1.80;;
75191;SDS011;63771;52.580;9.734;2023-01-30T09:57:55;10.65;;;2.72;;
75191;SDS011;63771;52.580;9.734;2023-01-30T10:00:36;9.73;;;2.08;;
75191;SDS011;63771;52.580;9.734;2023-01-30T10:03:13;12.85;;;2.95;;
75191;SDS011;63771;52.580;9.734;2023-01-30T10:05:54;6.55;;;2.03;;
75191;SDS011;63771;52.580;9.734;2023-01-30T10:22:15;9.57;;;2.30;;
75191;SDS011;63771;52.580;9.734;2023-01-30T10:24:52;5.10;;;2.45;;
75191;SDS011;63771;52.580;9.734;2023-01-30T10:27:25;12.55;;;2.67;;
75191;SDS011;63771;52.580;9.734;2023-01-30T10:29:55;6.75;;;1.88;;
75191;SDS011;63771;52.580;9.734;2023-01-30T10:32:39;9.63;;;2.75;;
75191;SDS011;63771;52.580;9.734;2023-01-30T10:35:13;11.35;;;2.92;;
75191;SDS011;63771;52.580;9.734;2023-01-30T10:43:19;7.53;;;1.73;;
75191;SDS011;63771;52.580;9.734;2023-01-30T10:46:03;10.23;;;2.53;;
75191;SDS011;63771;52.580;9.734;2023-01-30T11:05:26;9.52;;;2.30;;
75191;SDS011;63771;52.580;9.734;2023-01-30T11:08:03;6.53;;;2.25;;
75191;SDS011;63771;52.580;9.734;2023-01-30T11:10:36;8.20;;;2.25;;
75191;SDS011;63771;52.580;9.734;2023-01-30T11:13:35;10.30;;;2.17;;
75191;SDS011;63771;52.580;9.734;2023-01-30T11:15:58;2.92;;;1.70;;
75191;SDS011;63771;52.580;9.734;2023-01-30T11:18:26;6.38;;;2.08;;
75191;SDS011;63771;52.580;9.734;2023-01-30T11:20:57;3.28;;;1.40;;
75191;SDS011;63771;52.580;9.734;2023-01-30T11:23:31;11.80;;;1.75;;
75191;SDS011;63771;52.580;9.734;2023-01-30T11:26:04;8.95;;;2.00;;
75191;SDS011;63771;52.580;9.734;2023-01-30T11:28:39;9.07;;;2.20;;
75191;SDS011;63771;52.580;9.734;2023-01-30T11:31:09;2.55;;;1.52;;
75191;SDS011;63771;52.580;9.734;2023-01-30T11:33:42;1.38;;;0.82;;
75191;SDS011;63771;52.580;9.734;2023-01-30T11:36:24;1.20;;;1.10;;
75191;SDS011;63771;52.580;9.734;2023-01-30T11:38:56;1.92;;;1.38;;
75191;SDS011;63771;52.580;9.734;2023-01-30T11:41:24;10.80;;;2.25;;
75191;SDS011;63771;52.580;9.734;2023-01-30T11:43:49;7.28;;;1.70;;
75191;SDS011;63771;52.580;9.734;2023-01-30T11:46:16;7.40;;;1.83;;
75191;SDS011;63771;52.580;9.734;2023-01-30T11:51:23;6.63;;;2.42;;
75191;SDS011;63771;52.580;9.734;2023-01-30T11:53:52;14.00;;;2.92;;
75191;SDS011;63771;52.580;9.734;2023-01-30T11:56:24;16.83;;;2.95;;
75191;SDS011;63771;52.580;9.734;2023-01-30T11:59:06;7.60;;;3.05;;
75191;SDS011;63771;52.580;9.734;2023-01-30T12:01:36;12.57;;;1.95;;
75191;SDS011;63771;52.580;9.734;2023-01-30T12:04:04;8.85;;;2.17;;
75191;SDS011;63771;52.580;9.734;2023-01-30T12:06:34;12.60;;;2.60;;
75191;SDS011;63771;52.580;9.734;2023-01-30T12:09:01;7.00;;;1.95;;
75191;SDS011;63771;52.580;9.734;2023-01-30T12:16:58;7.43;;;2.33;;
75191;SDS011;63771;52.580;9.734;2023-01-30T12:19:34;14.05;;;2.50;;
75191;SDS011;63771;52.580;9.734;2023-01-30T12:22:14;13.95;;;1.95;;
75191;SDS011;63771;52.580;9.734;2023-01-30T12:25:00;5.85;;;1.45;;
75191;SDS011;63771;52.580;9.734;2023-01-30T12:27:46;12.75;;;1.83;;
75191;SDS011;63771;52.580;9.734;2023-01-30T12:30:23;6.45;;;2.03;;
75191;SDS011;63771;52.580;9.734;2023-01-30T12:32:57;6.43;;;1.25;;
75191;SDS011;63771;52.580;9.734;2023-01-30T12:35:27;5.30;;;2.42;;
75191;SDS011;63771;52.580;9.734;2023-01-30T12:41:05;7.68;;;1.52;;
75191;SDS011;63771;52.580;9.734;2023-01-30T12:43:34;9.43;;;1.85;;
75191;SDS011;63771;52.580;9.734;2023-01-30T12:49:16;7.72;;;1.73;;
75191;SDS011;63771;52.580;9.734;2023-01-30T12:57:59;10.55;;;1.75;;
75191;SDS011;63771;52.580;9.734;2023-01-30T13:03:10;8.68;;;2.05;;
75191;SDS011;63771;52.580;9.734;2023-01-30T13:21:45;4.22;;;1.80;;
75191;SDS011;63771;52.580;9.734;2023-01-30T13:24:29;11.75;;;2.55;;
75191;SDS011;63771;52.580;9.734;2023-01-30T13:27:11;10.05;;;2.85;;
75191;SDS011;63771;52.580;9.734;2023-01-30T13:29:42;15.05;;;2.13;;
75191;SDS011;63771;52.580;9.734;2023-01-30T13:32:52;9.60;;;2.30;;
75191;SDS011;63771;52.580;9.734;2023-01-30T13:35:02;5.85;;;2.25;;
75191;SDS011;63771;52.580;9.734;2023-01-30T13:37:30;7.68;;;2.70;;
75191;SDS011;63771;52.580;9.734;2023-01-30T13:39:57;11.07;;;2.83;;
75191;SDS011;63771;52.580;9.734;2023-01-30T13:45:13;12.73;;;2.42;;
75191;SDS011;63771;52.580;9.734;2023-01-30T13:47:47;7.93;;;2.38;;
75191;SDS011;63771;52.580;9.734;2023-01-30T14:01:23;4.00;;;1.90;;
75191;SDS011;63771;52.580;9.734;2023-01-30T14:03:51;8.18;;;1.95;;
75191;SDS011;63771;52.580;9.734;2023-01-30T14:06:36;11.18;;;1.88;;
75191;SDS011;63771;52.580;9.734;2023-01-30T14:09:17;3.10;;;1.30;;
75191;SDS011;63771;52.580;9.734;2023-01-30T14:11:47;9.40;;;1.83;;
75191;SDS011;63771;52.580;9.734;2023-01-30T14:14:25;6.95;;;2.72;;
75191;SDS011;63771;52.580;9.734;2023-01-30T14:16:53;9.80;;;2.25;;
75191;SDS011;63771;52.580;9.734;2023-01-30T14:21:59;6.28;;;2.67;;
75191;SDS011;63771;52.580;9.734;2023-01-30T14:24:28;7.38;;;1.92;;
75191;SDS011;63771;52.580;9.734;2023-01-30T14:26:59;8.40;;;1.55;;
75191;SDS011;63771;52.580;9.734;2023-01-30T14:34:41;11.85;;;1.85;;
75191;SDS011;63771;52.580;9.734;2023-01-30T14:39:53;8.38;;;1.90;;
75191;SDS011;63771;52.580;9.734;2023-01-30T14:44:58;7.65;;;1.90;;
75191;SDS011;63771;52.580;9.734;2023-01-30T14:47:27;10.45;;;2.33;;
75191;SDS011;63771;52.580;9.734;2023-01-30T14:49:54;11.90;;;2.00;;
75191;SDS011;63771;52.580;9.734;2023-01-30T14:52:28;10.07;;;2.38;;
75191;SDS011;63771;52.580;9.734;2023-01-30T14:54:58;12.73;;;2.05;;
75191;SDS011;63771;52.580;9.734;2023-01-30T14:57:24;10.90;;;2.17;;
75191;SDS011;63771;52.580;9.734;2023-01-30T14:59:58;9.32;;;2.08;;
75191;SDS011;63771;52.580;9.734;2023-01-30T15:02:31;3.20;;;1.70;;
75191;SDS011;63771;52.580;9.734;2023-01-30T15:13:05;6.97;;;2.10;;
75191;SDS011;63771;52.580;9.734;2023-01-30T15:15:45;9.65;;;2.10;;
75191;SDS011;63771;52.580;9.734;2023-01-30T15:18:39;11.77;;;3.50;;
75191;SDS011;63771;52.580;9.734;2023-01-30T15:21:20;10.80;;;2.00;;
75191;SDS011;63771;52.580;9.734;2023-01-30T15:24:07;8.13;;;2.47;;
75191;SDS011;63771;52.580;9.734;2023-01-30T15:32:27;14.57;;;3.03;;
75191;SDS011;63771;52.580;9.734;2023-01-30T15:34:58;10.48;;;2.53;;
75191;SDS011;63771;52.580;9.734;2023-01-30T15:37:38;15.35;;;2.58;;
75191;SDS011;63771;52.580;9.734;2023-01-30T15:48:41;8.13;;;2.33;;
75191;SDS011;63771;52.580;9.734;2023-01-30T15:51:22;8.05;;;2.33;;
75191;SDS011;63771;52.580;9.734;2023-01-30T15:53:51;8.57;;;2.75;;
75191;SDS011;63771;52.580;9.734;2023-01-30T15:56:20;8.48;;;2.20;;
75191;SDS011;63771;52.580;9.734;2023-01-30T15:58:51;19.77;;;3.95;;
75191;SDS011;63771;52.580;9.734;2023-01-30T16:01:19;7.90;;;2.63;;
75191;SDS011;63771;52.580;9.734;2023-01-30T16:03:45;12.38;;;3.38;;
75191;SDS011;63771;52.580;9.734;2023-01-30T16:06:21;10.40;;;3.00;;
75191;SDS011;63771;52.580;9.734;2023-01-30T16:09:18;8.00;;;2.35;;
75191;SDS011;63771;52.580;9.734;2023-01-30T16:11:47;10.55;;;2.80;;
75191;SDS011;63771;52.580;9.734;2023-01-30T16:14:14;12.45;;;3.47;;
75191;SDS011;63771;52.580;9.734;2023-01-30T16:16:46;5.85;;;1.55;;
75191;SDS011;63771;52.580;9.734;2023-01-30T16:19:26;10.45;;;2.13;;
75191;SDS011;63771;52.580;9.734;2023-01-30T16:21:55;8.60;;;1.48;;
75191;SDS011;63771;52.580;9.734;2023-01-30T16:24:26;7.47;;;1.83;;
75191;SDS011;63771;52.580;9.734;2023-01-30T16:26:54;2.58;;;1.50;;
75191;SDS011;63771;52.580;9.734;2023-01-30T16:29:23;5.63;;;1.60;;
75191;SDS011;63771;52.580;9.734;2023-01-30T16:31:51;9.32;;;2.67;;
75191;SDS011;63771;52.580;9.734;2023-01-30T16:34:24;9.00;;;1.85;;
75191;SDS011;63771;52.580;9.734;2023-01-30T16:36:51;7.05;;;1.75;;
75191;SDS011;63771;52.580;9.734;2023-01-30T16:39:29;5.70;;;1.93;;
75191;SDS011;63771;52.580;9.734;2023-01-30T16:41:57;14.18;;;2.97;;
75191;SDS011;63771;52.580;9.734;2023-01-30T16:44:24;8.02;;;2.42;;
75191;SDS011;63771;52.580;9.734;2023-01-30T16:46:59;3.97;;;1.75;;
75191;SDS011;63771;52.580;9.734;2023-01-30T16:52:04;10.93;;;2.58;;
75191;SDS011;63771;52.580;9.734;2023-01-30T16:54:48;3.78;;;1.27;;
75191;SDS011;63771;52.580;9.734;2023-01-30T16:57:24;9.70;;;1.65;;
75191;SDS011;63771;52.580;9.734;2023-01-30T16:59:51;9.98;;;1.88;;
75191;SDS011;63771;52.580;9.734;2023-01-30T17:02:23;5.57;;;2.75;;
75191;SDS011;63771;52.580;9.734;2023-01-30T17:04:54;5.78;;;1.95;;
75191;SDS011;63771;52.580;9.734;2023-01-30T17:07:32;6.55;;;1.48;;
75191;SDS011;63771;52.580;9.734;2023-01-30T17:09:59;12.15;;;2.58;;
75191;SDS011;63771;52.580;9.734;2023-01-30T17:14:49;10.97;;;2.50;;
75191;SDS011;63771;52.580;9.734;2023-01-30T17:17:40;12.43;;;2.90;;
75191;SDS011;63771;52.580;9.734;2023-01-30T17:20:07;7.18;;;2.05;;
75191;SDS011;63771;52.580;9.734;2023-01-30T17:22:33;9.80;;;2.13;;
75191;SDS011;63771;52.580;9.734;2023-01-30T17:25:04;13.05;;;2.60;;
75191;SDS011;63771;52.580;9.734;2023-01-30T17:27:38;11.88;;;3.28;;
75191;SDS011;63771;52.580;9.734;2023-01-30T17:30:13;8.75;;;1.75;;
75191;SDS011;63771;52.580;9.734;2023-01-30T17:32:39;8.43;;;1.45;;
75191;SDS011;63771;52.580;9.734;2023-01-30T17:35:05;8.83;;;2.20;;